x

Montauk Point -23 Nm Ssw Of Montauk Point, Ny (44017) Wave Buoy

6:50pm - Thu 19th Jan 2017 All times are EST. -5 hours from GMT.

  • Sig Wave height 4.9ft
  • Swell Direction
  • Peak Period 9s
  • Average Period 8s
  • Wind
    9mph, 13mph gusts
  • Sea Temp 48°f
  • Air Temp 45°f
  • Sea Pressure 1016.5mb
  • Montauk Point -23 Nm Ssw Of Montauk Point, Ny
  • Montauk Point -23 Nm Ssw Of Montauk Point, Ny

More Historic Weather Station data

Upgrade to MSW Pro to gain access to the past 30 days of data for over 8000 Wavebouys and Weather Stations around the globe.

Join Pro

Comparision Forecast

View Surf forecast
   
Thu 01/19 6:50pm 5ft 9s 8s 9 13 mph 1016.5mb 48f 45f
5:50pm 5ft 10s 8s 9 13 mph 1015.9mb 48f 45f
4:50pm 5ft 10s 7s 11 13 mph 1015.2mb 48f 45f
3:50pm 5ft 9s 7s 11 13 mph 1014.8mb 48f 45f
2:50pm 5ft 10s 6s 13 18 mph 1014.8mb 48f 45f
1:50pm 5ft 10s 7s 16 20 mph 1015.2mb 48f 44f
12:50pm 5ft 10s 7s 13 16 mph 1015.5mb 48f 43f
11:50am 5ft 10s 7s 11 16 mph 1015.7mb 48f 42f
10:50am 4.5ft 10s 7s 11 13 mph 1016.9mb 48f 41f
9:50am 5ft 9s 7s 11 16 mph 1017.7mb 48f 41f
8:50am 5ft 10s 7s 7 9 mph 1017.3mb 48f 41f
7:50am 4.5ft 9s 7s 9 11 mph 1017.1mb 48f 39f
6:50am 6ft 10s 7s 9 11 mph 1016.7mb 48f 40f
5:50am 5ft 9s 6s 7 9 mph 1016.6mb 48f 40f
4:50am 5.5ft 9s 6s 9 11 mph 1016.6mb 48f 40f
3:50am 6.5ft 9s 7s 11 13 mph 1016.4mb 47f 41f
2:50am 6.5ft 9s 6s 7 9 mph 1016.2mb 47f 40f
1:50am 7ft 9s 6s 11 16 mph 1016.1mb 47f 40f
12:50am 6.5ft 9s 6s 13 18 mph 1015.5mb 47f 40f
Wed 01/18 11:50pm 7ft 8s 6s 16 20 mph 1015.8mb 47f 42f
10:50pm 7ft 8s 6s 16 18 mph 1015mb 47f 42f
9:50pm 7ft 8s 6s 18 20 mph 1015.2mb 47f 42f
8:50pm 7ft 8s 6s 20 22 mph 1015.9mb 47f 42f
7:50pm 7ft 7s 6s 18 22 mph 1015.8mb 46f 43f
6:50pm 6.5ft 8s 5s 22 25 mph 1015.2mb 46f 44f
5:50pm 7ft 7s 5s 22 27 mph 1014.7mb 46f 44f
4:50pm 6.5ft 7s 5s 25 29 mph 1013.2mb 46f 43f
3:50pm 6.5ft 7s 5s 22 29 mph 1013mb 46f 43f
2:50pm 6.5ft 7s 5s 27 31 mph 1012mb 47f 42f
1:50pm 7ft 7s 5s 22 25 mph 1011.3mb 47f 43f
12:50pm 7ft 7s 5s 22 27 mph 1010.8mb 47f 43f
11:50am 6.5ft 7s 5s 25 31 mph 1010.5mb 47f 42f
10:50am 7ft 7s 5s 25 29 mph 1011.8mb 47f 43f
9:50am 7ft 7s 5s 22 27 mph 1012mb 47f 44f
8:50am 7ft 6s 5s 22 25 mph 1011.7mb 48f 45f
7:50am 6.5ft 6s 5s 25 31 mph 1010.1mb 48f 45f
6:50am 5.5ft 6s 5s 22 27 mph 1011.1mb 48f 45f
5:50am 5ft 6s 5s 22 27 mph 1010.9mb 48f 46f
4:50am 5ft 6s 5s 18 22 mph 1011.4mb 48f 47f
3:50am 5ft 6s 5s 18 20 mph 1011.6mb 48f 47f
2:50am 5.5ft 6s 5s 22 27 mph 1011.6mb 48f 47f
1:50am 5ft 5s 5s 22 27 mph 1012.2mb 48f 47f
12:50am 5ft 5s 4s 22 25 mph 1013.4mb 48f 46f
Tue 01/17 11:50pm 3.5ft 4s 4s 22 27 mph 1014.5mb 48f 46f
10:50pm 3.5ft 4s 4s 20 22 mph 1016.4mb 48f 45f
9:50pm 3ft 4s 4s 22 27 mph 1016.3mb 48f 45f
8:50pm 2.5ft 4s 3s 22 27 mph 1017.6mb 48f 44f
7:50pm 2ft 3s 3s 16 18 mph 1019mb 48f 44f
6:50pm 2ft 3s 3s 13 16 mph 1019.9mb 48f 44f
5:50pm 1.6ft 9s 4s 13 18 mph 1020.1mb 48f 44f
4:50pm 1.3ft 9s 4s 11
mph
1020.7mb 48f 44f
3:50pm 1.3ft 10s 5s 11 13 mph 1020.7mb 48f 43f
2:50pm 1.3ft 10s 4s 9 13 mph 1021.3mb 48f 43f
1:50pm 1.6ft 9s 5s 7 9 mph 1021.7mb 48f 42f
12:50pm 1.6ft 4s 4s 2 4 mph 1022.4mb 48f 42f
11:50am 2ft 5s 4s 4 7 mph 1023mb 48f 42f
10:50am 2ft 5s 4s 4 7 mph 1023.9mb 48f 42f
9:50am 2.5ft 5s 4s 4 7 mph 1024.3mb 48f 42f
8:50am 2.5ft 5s 4s 7 9 mph 1024.5mb 48f 42f
7:50am 3ft 5s 4s 9 11 mph 1024.2mb 48f 42f
6:50am 3.5ft 5s 4s 13 18 mph 1024mb 48f 42f
5:50am 3.5ft 5s 4s 16 18 mph 1023.9mb 48f 42f
4:50am 3.5ft 5s 4s 20 25 mph 1023.7mb 48f 43f
3:50am 3.5ft 5s 4s 20 25 mph 1023.5mb 48f 44f
2:50am 3.5ft 5s 4s 22 27 mph 1024.1mb 48f 44f
1:50am 3.5ft 5s 4s 22 25 mph 1024.3mb 48f 44f
12:50am 3.5ft 4s 4s 20 25 mph 1024.7mb 48f 43f
Mon 01/16 11:50pm 3.5ft 4s 4s 20 22 mph 1025.4mb 48f 43f
10:50pm 3ft 4s 4s 18 20 mph 1026.2mb 48f 43f
9:50pm 3ft 4s 4s 20 22 mph 1026.9mb 48f 43f
8:50pm 3ft 4s 4s 20 22 mph 1027.2mb 48f 42f
7:50pm 2.5ft 4s 4s 20 22 mph 1027.3mb 48f 42f
6:50pm 2.5ft 3s 4s 18 20 mph 1027.6mb 48f 41f
5:50pm 2ft 9s 4s 16 20 mph 1028mb 48f 41f
4:50pm 2ft 9s 4s 13 18 mph 1028.1mb 48f 40f
3:50pm 2ft 3s 4s 13 18 mph 1028.6mb 48f 40f
2:50pm 2ft 8s 4s 16 18 mph 1028.8mb 48f 39f
1:50pm 2ft 9s 4s 13 18 mph 1029.1mb 48f 39f
12:50pm 2ft 11s 4s 13 18 mph 1029.8mb 48f 39f
11:50am 1.6ft 10s 6s 13 18 mph 1030.5mb 48f 39f
10:50am 1.6ft 10s 6s 9 13 mph 1031.5mb 48f 39f
9:50am 1.6ft 9s 6s 4 7 mph 1031.7mb 47f 39f
8:50am 1.6ft 10s 6s 2 4 mph 1031.6mb 47f 40f
7:50am 1.6ft 10s 5s 2 4 mph 1031.2mb 47f 38f
6:50am 1.6ft 9s 5s 4 7 mph 1031mb 47f 37f
5:50am 1.6ft 11s 5s 7 9 mph 1030.8mb 47f 37f
4:50am 1.6ft 10s 4s 7 11 mph 1030.8mb 48f 37f
3:50am 1.3ft 11s 5s 9 11 mph 1030.8mb 47f 37f
2:50am 1.3ft 11s 5s 4 9 mph 1031mb 47f 38f